createdAt,value
2022-09-12T00:01:19.563Z,8.50
2022-09-12T00:03:48.303Z,7.55
2022-09-12T00:06:29.754Z,6.90
2022-09-12T00:09:09.096Z,6.82
2022-09-12T00:11:39.024Z,7.15
2022-09-12T00:14:08.769Z,7.00
2022-09-12T00:16:37.516Z,7.57
2022-09-12T00:19:06.399Z,7.07
2022-09-12T00:21:36.612Z,6.88
2022-09-12T00:24:04.602Z,5.90
2022-09-12T00:26:32.550Z,6.03
2022-09-12T00:29:00.042Z,5.82
2022-09-12T00:31:28.216Z,6.10
2022-09-12T00:34:00.753Z,7.97
2022-09-12T00:36:30.419Z,7.32
2022-09-12T00:38:58.644Z,7.15
2022-09-12T00:41:32.554Z,7.60
2022-09-12T00:44:24.560Z,6.10
2022-09-12T00:47:16.243Z,6.88
2022-09-12T00:49:54.986Z,6.55
2022-09-12T00:52:46.266Z,6.97
2022-09-12T00:55:27.895Z,6.72
2022-09-12T00:58:05.073Z,7.60
2022-09-12T01:00:32.826Z,8.52
2022-09-12T01:03:09.209Z,7.85
2022-09-12T01:05:45.392Z,7.60
2022-09-12T01:08:12.856Z,5.88
2022-09-12T01:10:42.637Z,7.97
2022-09-12T01:13:11.364Z,7.82
2022-09-12T01:15:40.433Z,8.15
2022-09-12T01:18:25.055Z,8.02
2022-09-12T01:21:17.037Z,7.88
2022-09-12T01:24:02.899Z,7.45
2022-09-12T01:27:04.120Z,7.20
2022-09-12T01:30:21.200Z,9.27
2022-09-12T01:33:37.049Z,7.22
2022-09-12T01:36:30.604Z,7.53
2022-09-12T01:39:08.610Z,8.07
2022-09-12T01:42:10.347Z,8.63
2022-09-12T01:44:56.112Z,8.02
2022-09-12T01:47:39.769Z,7.88
2022-09-12T01:50:21.708Z,8.68
2022-09-12T01:53:14.849Z,8.80
2022-09-12T01:55:51.504Z,7.88
2022-09-12T01:58:40.579Z,8.70
2022-09-12T02:01:20.932Z,9.30
2022-09-12T02:04:15.793Z,8.05
2022-09-12T02:07:06.849Z,8.50
2022-09-12T02:09:56.645Z,8.15
2022-09-12T02:12:35.160Z,8.95
2022-09-12T02:15:08.657Z,8.95
2022-09-12T02:17:47.286Z,8.40
2022-09-12T02:20:44.015Z,8.20
2022-09-12T02:23:15.738Z,9.25
2022-09-12T02:25:48.935Z,8.88
2022-09-12T02:28:31.567Z,8.32
2022-09-12T02:31:47.730Z,7.93
2022-09-12T02:34:33.354Z,7.07
2022-09-12T02:37:29.572Z,6.88
2022-09-12T02:39:58.110Z,7.55
2022-09-12T02:42:26.317Z,8.00
2022-09-12T02:44:56.512Z,6.95
2022-09-12T02:47:42.243Z,7.30
2022-09-12T02:50:10.656Z,6.95
2022-09-12T02:52:38.852Z,7.78
2022-09-12T02:55:07.836Z,7.53
2022-09-12T02:57:35.330Z,6.30
2022-09-12T03:00:03.168Z,7.55
2022-09-12T03:03:09.640Z,7.15
2022-09-12T03:05:59.885Z,7.15
2022-09-12T03:08:46.568Z,7.00
2022-09-12T03:11:38.056Z,7.80
2022-09-12T03:14:43.776Z,7.70
2022-09-12T03:17:26.193Z,7.53
2022-09-12T03:20:09.669Z,6.78
2022-09-12T03:22:59.158Z,6.18
2022-09-12T03:25:49.098Z,7.13
2022-09-12T03:28:20.186Z,7.93
2022-09-12T03:30:51.557Z,6.70
2022-09-12T03:33:24.992Z,7.00
2022-09-12T03:35:54.801Z,6.88
2022-09-12T03:38:22.170Z,6.15
2022-09-12T03:40:54.064Z,5.88
2022-09-12T03:43:22.265Z,6.78
2022-09-12T03:45:53.488Z,8.05
2022-09-12T03:48:21.234Z,6.60
2022-09-12T03:50:48.421Z,6.95
2022-09-12T03:53:17.420Z,7.13
2022-09-12T03:55:45.648Z,6.72
2022-09-12T03:58:12.920Z,6.38
2022-09-12T04:00:41.040Z,6.80
2022-09-12T04:03:09.294Z,8.43
2022-09-12T04:05:36.859Z,9.23
2022-09-12T04:08:04.262Z,8.52
2022-09-12T04:10:32.392Z,9.05
2022-09-12T04:12:59.606Z,7.32
2022-09-12T04:15:27.024Z,7.63
2022-09-12T04:17:54.282Z,7.43
2022-09-12T04:20:21.508Z,6.13
2022-09-12T04:22:48.887Z,8.27
2022-09-12T04:25:17.354Z,7.93
2022-09-12T04:27:44.586Z,8.95
2022-09-12T04:30:12.662Z,8.77
2022-09-12T04:32:41.081Z,9.73
2022-09-12T04:35:08.519Z,7.38
2022-09-12T04:37:36.037Z,8.43
2022-09-12T04:40:03.596Z,7.05
2022-09-12T04:42:30.904Z,7.78
2022-09-12T04:44:58.412Z,7.28
2022-09-12T04:47:25.605Z,7.60
2022-09-12T04:49:52.787Z,7.20
2022-09-12T04:52:20.384Z,7.60
2022-09-12T04:54:47.617Z,6.70
2022-09-12T04:57:14.822Z,7.43
2022-09-12T04:59:42.666Z,8.52
2022-09-12T05:02:09.893Z,7.60
2022-09-12T05:04:37.187Z,9.82
2022-09-12T05:07:05.878Z,9.73
2022-09-12T05:09:33.173Z,10.60
2022-09-12T05:12:05.314Z,12.45
2022-09-12T05:14:35.085Z,11.43
2022-09-12T05:17:06.001Z,9.13
2022-09-12T05:19:33.570Z,10.65
2022-09-12T05:22:00.922Z,9.32
2022-09-12T05:24:28.417Z,8.75
2022-09-12T05:26:55.784Z,11.27
2022-09-12T05:29:23.050Z,16.40
2022-09-12T05:31:52.316Z,12.93
2022-09-12T05:34:21.167Z,15.10
2022-09-12T05:36:49.426Z,11.27
2022-09-12T05:39:17.010Z,10.52
2022-09-12T05:41:44.508Z,8.65
2022-09-12T05:44:14.352Z,10.35
2022-09-12T05:46:45.218Z,8.68
2022-09-12T05:49:13.872Z,7.85
2022-09-12T05:51:45.942Z,7.03
2022-09-12T05:54:18.057Z,7.57
2022-09-12T05:56:46.583Z,6.93
2022-09-12T05:59:20.878Z,6.80
2022-09-12T06:01:49.233Z,6.57
2022-09-12T06:04:17.292Z,7.57
2022-09-12T06:06:46.699Z,6.55
2022-09-12T06:09:16.898Z,7.47
2022-09-12T06:11:46.038Z,8.40
2022-09-12T06:14:17.046Z,7.22
2022-09-12T06:16:44.663Z,7.10
2022-09-12T06:19:19.578Z,7.65
2022-09-12T06:21:49.555Z,15.57
2022-09-12T06:24:18.764Z,24.67
2022-09-12T06:26:47.889Z,7.47
2022-09-12T06:29:15.934Z,6.78
2022-09-12T06:31:44.037Z,7.30
2022-09-12T06:34:15.571Z,6.70
2022-09-12T06:36:47.006Z,5.93
2022-09-12T06:39:21.012Z,6.13
2022-09-12T06:41:51.349Z,7.05
2022-09-12T06:44:22.844Z,5.30
2022-09-12T06:46:50.600Z,4.43
2022-09-12T06:49:17.940Z,3.88
2022-09-12T06:51:45.313Z,3.17
2022-09-12T06:54:15.523Z,2.90
2022-09-12T06:56:43.136Z,3.25
2022-09-12T06:59:10.485Z,3.15
2022-09-12T07:01:38.336Z,2.20
2022-09-12T07:04:05.921Z,2.75
2022-09-12T07:06:42.497Z,2.55
2022-09-12T07:09:16.417Z,7.10
2022-09-12T07:11:45.904Z,6.07
2022-09-12T07:14:14.790Z,7.45
2022-09-12T07:16:43.117Z,4.20
2022-09-12T07:19:11.139Z,3.28
2022-09-12T07:21:41.789Z,3.35
2022-09-12T07:24:10.955Z,2.80
2022-09-12T07:26:40.719Z,3.40
2022-09-12T07:32:04.496Z,9.52
2022-09-12T07:34:32.692Z,4.00
2022-09-12T07:36:59.946Z,2.30
2022-09-12T07:39:27.242Z,2.40
2022-09-12T07:41:54.994Z,3.22
2022-09-12T07:44:22.930Z,2.75
2022-09-12T07:46:50.809Z,3.55
2022-09-12T07:49:18.163Z,2.97
2022-09-12T07:51:45.775Z,2.80
2022-09-12T07:54:12.978Z,3.28
2022-09-12T07:56:40.945Z,3.10
2022-09-12T07:59:08.909Z,2.53
2022-09-12T08:01:36.521Z,4.07
2022-09-12T08:04:05.333Z,3.10
2022-09-12T08:06:36.050Z,4.68
2022-09-12T08:09:05.952Z,3.85
2022-09-12T08:11:33.899Z,3.15
2022-09-12T08:14:03.145Z,5.78
2022-09-12T08:16:32.518Z,3.35
2022-09-12T08:19:02.584Z,3.45
2022-09-12T08:21:32.525Z,4.85
2022-09-12T08:24:03.826Z,4.28
2022-09-12T08:26:34.622Z,3.00
2022-09-12T08:29:02.582Z,4.45
2022-09-12T08:31:32.018Z,1.98
2022-09-12T08:34:00.646Z,2.45
2022-09-12T08:36:29.725Z,2.80
2022-09-12T08:39:04.682Z,3.70
2022-09-12T08:41:40.827Z,2.92
2022-09-12T08:44:20.230Z,2.25
2022-09-12T08:47:24.106Z,3.78
2022-09-12T08:50:04.523Z,3.58
2022-09-12T08:52:52.028Z,4.68
2022-09-12T08:55:43.555Z,5.85
2022-09-12T08:58:20.988Z,3.65
2022-09-12T09:01:20.874Z,3.15
2022-09-12T09:04:31.837Z,3.70
2022-09-12T09:07:48.788Z,2.72
2022-09-12T09:10:35.604Z,2.22
2022-09-12T09:13:45.748Z,4.18
2022-09-12T09:16:36.123Z,4.32
2022-09-12T09:19:12.900Z,5.10
2022-09-12T09:21:58.829Z,2.75
2022-09-12T09:24:40.903Z,1.90
2022-09-12T09:27:41.689Z,3.17
2022-09-12T09:30:19.941Z,2.60
2022-09-12T09:32:59.871Z,2.00
2022-09-12T09:35:44.931Z,1.95
2022-09-12T09:38:50.414Z,3.05
2022-09-12T09:41:49.778Z,2.17
2022-09-12T09:44:18.074Z,1.63
2022-09-12T09:46:45.356Z,2.22
2022-09-12T09:49:17.059Z,1.55
2022-09-12T09:51:44.946Z,1.88
2022-09-12T09:54:28.235Z,1.92
2022-09-12T09:56:56.636Z,1.52
2022-09-12T09:59:31.314Z,1.48
2022-09-12T10:02:03.874Z,2.05
2022-09-12T10:04:40.684Z,1.65
2022-09-12T10:07:19.927Z,1.75
2022-09-12T10:10:14.375Z,1.70
2022-09-12T10:12:42.914Z,1.30
2022-09-12T10:15:36.679Z,1.50
2022-09-12T10:18:04.534Z,1.33
2022-09-12T10:20:45.184Z,1.20
2022-09-12T10:23:41.080Z,1.63
2022-09-12T10:26:14.713Z,1.60
2022-09-12T10:28:54.954Z,1.33
2022-09-12T10:31:35.346Z,1.42
2022-09-12T10:34:02.830Z,1.20
2022-09-12T10:36:40.569Z,1.67
2022-09-12T10:39:19.370Z,1.75
2022-09-12T10:41:47.411Z,1.50
2022-09-12T10:44:26.163Z,1.30
2022-09-12T10:46:54.550Z,1.10
2022-09-12T10:49:31.557Z,1.67
2022-09-12T10:52:24.516Z,1.58
2022-09-12T10:54:52.907Z,1.67
2022-09-12T10:58:22.032Z,1.95
2022-09-12T11:01:02.911Z,1.50
2022-09-12T11:04:18.746Z,1.70
2022-09-12T11:07:27.160Z,1.50
2022-09-12T11:10:54.809Z,1.80
2022-09-12T11:14:00.503Z,1.70
2022-09-12T11:16:33.585Z,1.70
2022-09-12T11:19:11.255Z,1.75
2022-09-12T11:21:45.209Z,1.40
2022-09-12T11:24:40.424Z,1.80
2022-09-12T11:27:22.064Z,2.00
2022-09-12T11:30:15.049Z,1.65
2022-09-12T11:33:06.579Z,3.50
2022-09-12T11:35:49.751Z,1.92
2022-09-12T11:38:47.694Z,1.90
2022-09-12T11:41:36.879Z,1.40
2022-09-12T11:44:26.608Z,1.48
2022-09-12T11:46:54.142Z,1.45
2022-09-12T11:49:51.048Z,1.60
2022-09-12T11:52:27.053Z,1.30
2022-09-12T11:55:22.935Z,1.27
2022-09-12T11:58:00.078Z,1.38
2022-09-12T12:00:47.169Z,2.25
2022-09-12T12:03:42.935Z,1.15
2022-09-12T12:06:30.316Z,1.15
2022-09-12T12:08:58.576Z,1.70
2022-09-12T12:11:41.990Z,2.03
2022-09-12T12:14:30.990Z,2.72
2022-09-12T12:16:58.686Z,2.55
2022-09-12T12:19:36.243Z,6.53
2022-09-12T12:22:29.655Z,8.07
2022-09-12T12:25:13.202Z,5.25
2022-09-12T12:27:55.175Z,7.35
2022-09-12T12:30:31.460Z,2.85
2022-09-12T12:33:13.273Z,1.77
2022-09-12T12:36:01.732Z,2.35
2022-09-12T12:38:39.205Z,2.25
2022-09-12T12:41:18.627Z,2.30
2022-09-12T12:43:51.677Z,1.48
2022-09-12T12:46:39.231Z,1.23
2022-09-12T12:49:28.561Z,1.30
2022-09-12T12:52:01.665Z,1.90
2022-09-12T12:54:52.849Z,2.25
2022-09-12T12:57:24.928Z,2.25
2022-09-12T13:00:20.713Z,5.68
2022-09-12T13:03:28.952Z,1.10
2022-09-12T13:06:03.372Z,1.30
2022-09-12T13:08:34.862Z,1.30
2022-09-12T13:11:27.071Z,1.40
2022-09-12T13:14:04.486Z,1.30
2022-09-12T13:16:55.982Z,1.20
2022-09-12T13:19:36.321Z,1.30
2022-09-12T13:22:10.206Z,1.50
2022-09-12T13:24:49.252Z,1.50
2022-09-12T13:27:25.761Z,1.10
2022-09-12T13:30:15.233Z,1.20
2022-09-12T13:32:44.030Z,1.50
2022-09-12T13:35:24.198Z,1.30
2022-09-12T13:38:29.614Z,1.10
2022-09-12T13:41:34.678Z,1.13
2022-09-12T13:44:03.967Z,1.20
2022-09-12T13:46:34.681Z,9.07
2022-09-12T13:49:16.670Z,7.30
2022-09-12T13:51:44.261Z,3.20
2022-09-12T13:54:22.640Z,3.83
2022-09-12T13:56:51.915Z,1.60
2022-09-12T13:59:19.178Z,1.23
2022-09-12T14:01:48.584Z,1.52
2022-09-12T14:04:44.266Z,1.38
2022-09-12T14:07:22.268Z,1.52
2022-09-12T14:09:59.791Z,1.15
2022-09-12T14:12:43.614Z,1.30
2022-09-12T14:15:25.682Z,1.35
2022-09-12T14:18:01.159Z,1.15
2022-09-12T14:20:32.586Z,1.48
2022-09-12T14:23:28.343Z,1.33
2022-09-12T14:26:00.175Z,1.40
2022-09-12T14:28:30.329Z,1.45
2022-09-12T14:31:01.698Z,1.50
2022-09-12T14:33:33.783Z,1.83
2022-09-12T14:36:32.246Z,13.20
2022-09-12T14:39:07.368Z,17.75
2022-09-12T14:41:40.992Z,1.77
2022-09-12T14:44:17.436Z,1.58
2022-09-12T14:46:45.811Z,1.20
2022-09-12T14:49:35.753Z,1.30
2022-09-12T14:52:23.365Z,1.40
2022-09-12T14:55:17.314Z,1.00
2022-09-12T14:57:45.357Z,1.30
2022-09-12T15:00:12.497Z,1.10
2022-09-12T15:02:42.348Z,1.20
2022-09-12T15:05:12.480Z,1.13
2022-09-12T15:07:51.147Z,1.33
2022-09-12T15:10:31.146Z,1.20
2022-09-12T15:13:14.549Z,1.05
2022-09-12T15:15:46.547Z,1.00
2022-09-12T15:18:14.940Z,1.20
2022-09-12T15:20:45.668Z,1.35
2022-09-12T15:23:52.058Z,2.25
2022-09-12T15:26:27.548Z,1.20
2022-09-12T15:28:55.025Z,1.80
2022-09-12T15:31:31.272Z,1.70
2022-09-12T15:34:02.270Z,2.10
2022-09-12T15:36:29.894Z,1.77
2022-09-12T15:38:57.682Z,5.40
2022-09-12T15:41:39.419Z,1.75
2022-09-12T15:44:12.333Z,1.38
2022-09-12T15:46:40.548Z,1.38
2022-09-12T15:49:08.154Z,2.20
2022-09-12T15:51:35.287Z,1.63
2022-09-12T15:54:04.851Z,6.30
2022-09-12T15:56:33.022Z,3.05
2022-09-12T15:59:00.446Z,2.45
2022-09-12T16:01:29.182Z,2.83
2022-09-12T16:03:57.588Z,2.42
2022-09-12T16:06:25.013Z,2.47
2022-09-12T16:08:52.209Z,2.63
2022-09-12T16:11:25.991Z,3.00
2022-09-12T16:13:55.831Z,3.45
2022-09-12T16:16:23.500Z,2.35
2022-09-12T16:18:52.279Z,2.42
2022-09-12T16:21:19.597Z,2.00
2022-09-12T16:23:48.518Z,2.30
2022-09-12T16:26:16.598Z,2.55
2022-09-12T16:28:44.307Z,2.28
2022-09-12T16:31:14.277Z,2.45
2022-09-12T16:33:41.907Z,3.00
2022-09-12T16:36:13.632Z,3.45
2022-09-12T16:38:47.656Z,2.47
2022-09-12T16:41:17.024Z,4.55
2022-09-12T16:43:45.627Z,2.63
2022-09-12T16:46:20.729Z,3.50
2022-09-12T16:48:54.513Z,3.45
2022-09-12T16:51:37.270Z,4.85
2022-09-12T16:54:05.249Z,45.75
2022-09-12T16:56:32.493Z,13.18
2022-09-12T16:58:59.718Z,5.32
2022-09-12T17:01:27.580Z,2.95
2022-09-12T17:03:57.560Z,2.78
2022-09-12T17:06:27.475Z,2.58
2022-09-12T17:09:04.393Z,2.80
2022-09-12T17:11:38.312Z,9.95
2022-09-12T17:14:08.706Z,10.82
2022-09-12T17:16:43.461Z,4.97
2022-09-12T17:19:26.813Z,2.80
2022-09-12T17:21:54.859Z,2.65
2022-09-12T17:24:23.984Z,2.85
2022-09-12T17:26:52.447Z,2.97
2022-09-12T17:29:20.365Z,2.80
2022-09-12T17:31:49.331Z,2.70
2022-09-12T17:34:17.912Z,2.83
2022-09-12T17:36:48.375Z,2.80
2022-09-12T17:39:16.286Z,2.90
2022-09-12T17:41:46.300Z,3.15
2022-09-12T17:44:15.383Z,3.22
2022-09-12T17:46:44.031Z,4.32
2022-09-12T17:49:14.925Z,3.83
2022-09-12T17:51:44.027Z,3.13
2022-09-12T17:54:16.305Z,3.30
2022-09-12T17:56:46.857Z,2.83
2022-09-12T17:59:19.203Z,2.35
2022-09-12T18:02:06.118Z,2.53
2022-09-12T18:04:34.285Z,2.67
2022-09-12T18:07:01.526Z,2.65
2022-09-12T18:09:29.305Z,2.50
2022-09-12T18:11:57.407Z,2.15
2022-09-12T18:14:27.889Z,2.85
2022-09-12T18:16:57.287Z,3.08
2022-09-12T18:19:25.133Z,2.60
2022-09-12T18:21:52.491Z,2.80
2022-09-12T18:24:20.222Z,3.33
2022-09-12T18:26:48.284Z,3.00
2022-09-12T18:29:17.049Z,3.67
2022-09-12T18:31:45.391Z,3.28
2022-09-12T18:34:14.188Z,3.17
2022-09-12T18:36:46.928Z,3.03
2022-09-12T18:39:15.527Z,2.80
2022-09-12T18:41:43.884Z,3.33
2022-09-12T18:44:12.730Z,3.45
2022-09-12T18:46:40.844Z,3.80
2022-09-12T18:49:09.802Z,3.92
2022-09-12T18:51:40.160Z,3.83
2022-09-12T18:54:13.777Z,4.35
2022-09-12T18:56:43.713Z,4.00
2022-09-12T18:59:14.187Z,3.67
2022-09-12T19:01:43.162Z,3.95
2022-09-12T19:04:13.869Z,4.03
2022-09-12T19:06:45.753Z,3.65
2022-09-12T19:09:18.703Z,4.03
2022-09-12T19:11:50.455Z,3.25
2022-09-12T19:14:24.076Z,3.60
2022-09-12T19:16:52.509Z,3.42
2022-09-12T19:19:20.625Z,2.90
2022-09-12T19:21:47.832Z,2.92
2022-09-12T19:24:16.665Z,4.72
2022-09-12T19:26:44.885Z,3.60
2022-09-12T19:29:13.960Z,3.83
2022-09-12T19:31:41.439Z,7.18
2022-09-12T19:34:10.720Z,5.90
2022-09-12T19:36:47.426Z,4.95
2022-09-12T19:39:19.845Z,4.88
2022-09-12T19:41:48.331Z,4.15
2022-09-12T19:44:16.068Z,4.68
2022-09-12T19:46:43.572Z,4.80
2022-09-12T19:49:12.988Z,4.30
2022-09-12T19:51:40.928Z,4.47
2022-09-12T19:54:08.266Z,4.88
2022-09-12T19:56:35.674Z,4.05
2022-09-12T19:59:03.244Z,3.50
2022-09-12T20:01:30.555Z,4.07
2022-09-12T20:03:59.197Z,4.40
2022-09-12T20:06:27.521Z,4.68
2022-09-12T20:08:55.980Z,4.40
2022-09-12T20:11:24.552Z,4.38
2022-09-12T20:13:52.608Z,4.30
2022-09-12T20:16:23.280Z,3.47
2022-09-12T20:19:00.656Z,3.67
2022-09-12T20:21:31.869Z,3.75
2022-09-12T20:24:11.015Z,4.90
2022-09-12T20:26:39.905Z,6.00
2022-09-12T20:29:08.250Z,5.97
2022-09-12T20:31:38.470Z,5.07
2022-09-12T20:34:07.438Z,3.95
2022-09-12T20:36:34.788Z,4.90
2022-09-12T20:39:03.109Z,5.70
2022-09-12T20:41:34.436Z,4.97
2022-09-12T20:44:02.048Z,5.13
2022-09-12T20:46:29.342Z,4.00
2022-09-12T20:48:58.565Z,4.20
2022-09-12T20:51:26.803Z,4.10
2022-09-12T20:54:00.423Z,4.07
2022-09-12T20:56:29.489Z,5.03
2022-09-12T20:58:57.931Z,4.63
2022-09-12T21:01:27.724Z,5.15
2022-09-12T21:03:55.245Z,5.10
2022-09-12T21:06:22.744Z,5.80
2022-09-12T21:08:50.995Z,4.82
2022-09-12T21:11:19.783Z,5.32
2022-09-12T21:13:47.185Z,4.63
2022-09-12T21:16:18.359Z,4.78
2022-09-12T21:18:46.883Z,5.78
2022-09-12T21:21:16.362Z,4.60
2022-09-12T21:23:43.669Z,4.00
2022-09-12T21:26:11.069Z,4.07
2022-09-12T21:28:38.205Z,3.92
2022-09-12T21:31:05.887Z,5.18
2022-09-12T21:33:33.413Z,4.63
2022-09-12T21:36:06.429Z,5.15
2022-09-12T21:38:34.439Z,6.18
2022-09-12T21:41:14.801Z,7.60
2022-09-12T21:43:43.361Z,9.63
2022-09-12T21:46:12.037Z,7.85
2022-09-12T21:48:39.437Z,6.85
2022-09-12T21:51:07.192Z,6.35
2022-09-12T21:53:34.691Z,5.55
2022-09-12T21:56:08.052Z,5.20
2022-09-12T21:58:37.437Z,5.10
2022-09-12T22:01:06.137Z,6.43
2022-09-12T22:03:33.493Z,4.50
2022-09-12T22:06:03.854Z,4.70
2022-09-12T22:08:33.628Z,9.07
2022-09-12T22:11:05.699Z,9.93
2022-09-12T22:13:33.799Z,9.77
2022-09-12T22:16:03.119Z,9.10
2022-09-12T22:18:34.040Z,7.80
2022-09-12T22:21:07.312Z,7.47
2022-09-12T22:23:53.717Z,7.25
2022-09-12T22:26:21.270Z,6.63
2022-09-12T22:28:50.142Z,6.80
2022-09-12T22:31:18.045Z,5.93
2022-09-12T22:33:45.821Z,6.00
2022-09-12T22:36:13.822Z,4.72
2022-09-12T22:38:41.176Z,4.70
2022-09-12T22:41:11.572Z,5.43
2022-09-12T22:43:39.407Z,6.30
2022-09-12T22:46:09.589Z,5.63
2022-09-12T22:48:38.245Z,5.82
2022-09-12T22:51:06.342Z,7.30
2022-09-12T22:53:35.542Z,6.82
2022-09-12T22:56:05.191Z,6.32
2022-09-12T22:58:35.666Z,7.25
2022-09-12T23:01:06.672Z,6.35
2022-09-12T23:03:35.449Z,4.97
2022-09-12T23:06:04.500Z,4.63
2022-09-12T23:08:34.698Z,5.13
2022-09-12T23:11:20.918Z,5.95
2022-09-12T23:13:51.206Z,4.95
2022-09-12T23:16:26.139Z,4.40
2022-09-12T23:18:53.583Z,6.45
2022-09-12T23:21:22.092Z,6.45
2022-09-12T23:23:50.684Z,5.68
2022-09-12T23:26:22.225Z,8.48
2022-09-12T23:28:56.663Z,6.82
2022-09-12T23:31:30.332Z,7.03
2022-09-12T23:34:02.101Z,6.97
2022-09-12T23:36:29.891Z,6.70
2022-09-12T23:38:57.586Z,7.28
2022-09-12T23:41:25.402Z,5.78
2022-09-12T23:43:52.883Z,6.03
2022-09-12T23:46:22.033Z,7.07
2022-09-12T23:48:49.870Z,7.07
2022-09-12T23:51:17.619Z,6.80
2022-09-12T23:53:44.800Z,7.43
2022-09-12T23:56:12.061Z,7.18
2022-09-12T23:58:39.467Z,7.80
